To NAV CANADA Home Page Login to a new session Search on AWWS site Feedback and Comments Disclaimer Vers la page française équivalente Tips FAQ What's new on the site To the Forecasts and Observations / NOTAM section To "File a Flight Plan" website Publications and other links Update of the User's profile FIC Telephone Numbers My Weather Data Folder Route Weather Data Regional Weather Data Local Weather Data To the Forecasts and Observations / NOTAM section
Request Generated 05/22/2015 at 11:28:22 UTC . Weather information available at that time is displayed.

METAR/TAF

GRANDE PRAIRIE/AB    

METAR CYQU 221100Z 21003KT 25SM FEW130 FEW200 06/03 A2996 RMK AC1CI1
SLP152=
METAR CYQU 221000Z 32003KT 25SM FEW130 SCT200 10/04 A2995 RMK AC2CI2
SLP148=
METAR CYQU 220900Z 26003KT 25SM FEW130 09/04 A2995 RMK AC2 SLP147=

TAF CYQU 220638Z 2207/2219 35005KT P6SM SCT120
BECMG 2207/2209 04005KT
RMK NXT FCST BY 221300Z=
Your time UTC time
Weather data provided by Environment Canada and NAV CANADA